Monday, June 18, 2018, 8:34 PM EDT
Back to Local

KART, Watertown International Airport

Location: Dexter, NY, United States Lat: 43.983
Local Time: 8:34 PM EDT ( 0:34 GMT) Lon: -76.033
Time Zone: US/Eastern Elev: 324 ft

Show me the last for .
Show Decoded

2018-06-18 19:56 METAR KART 182356Z AUTO 23008KT 4SM -RA BR FEW034 SCT050 OVC100 21/20 A2974 RMK
                 AO2 RAB38 SLP063 P0001 60002 T02060200 10244 20206 56009 $ =
2018-06-18 19:28 METAR KART 182328Z AUTO 24007KT 6SM BR SCT007 OVC042 21/19 A2974 RMK AO2
                 T02060194 $ =
2018-06-18 19:17 METAR KART 182317Z AUTO 24008KT 7SM BKN008 BKN042 OVC110 21/19 A2974 RMK AO2
                 T02060194 $ =
2018-06-18 18:56 METAR KART 182256Z AUTO 23008KT 9SM SCT009 OVC110 21/19 A2974 RMK AO2 SLP065
                 T02060194 $ =
2018-06-18 18:41 METAR KART 182241Z AUTO 23010KT 9SM BKN009 BKN110 21/19 A2973 RMK AO2 T02110194
                 $ =
2018-06-18 18:28 METAR KART 182228Z AUTO 23011KT 10SM BKN010 BKN110 21/20 A2973 RMK AO2 T02110200
                 $ =
2018-06-18 17:56 METAR KART 182156Z AUTO 24012G17KT 10SM FEW042 22/20 A2974 RMK AO2 RAE28 SLP066
                 P0000 T02220200 $ =
2018-06-18 17:12 METAR KART 182112Z AUTO 24010KT 8SM -RA FEW009 BKN050 OVC120 21/20 A2976 RMK AO2
                 P0000 T02110200 $ =
2018-06-18 16:56 METAR KART 182056Z AUTO 23011G19KT 7SM -RA FEW044 BKN095 OVC120 21/20 A2976 RMK
                 AO2 RAB1957 SLP074 P0001 60001 T02110200 56017 $ =
2018-06-18 15:56 METAR KART 181956Z AUTO 24013G22KT 10SM BKN100 23/19 A2977 RMK AO2 RAE07 SLP075
                 P0000 T02280194 $ =
2018-06-18 14:56 METAR KART 181856Z AUTO 24012G18KT 10SM -RA SCT100 BKN110 23/19 A2977 RMK AO2
                 RAB04 SLP075 P0000 T02330194 $ =
2018-06-18 13:56 METAR KART 181756Z AUTO 23014G20KT 5SM HZ SCT039 BKN120 24/21 A2981 RMK AO2
                 SLP090 T02390206 10289 20239 56006 $ =
2018-06-18 12:56 METAR KART 181656Z AUTO 25012G19KT 6SM HZ CLR 27/22 A2982 RMK AO2 SLP091
                 T02720217 $ =
2018-06-18 11:56 METAR KART 181556Z AUTO 24014KT 7SM FEW090 29/22 A2983 RMK AO2 PK WND 23027/1523
                 SLP094 T02890222 $ =
2018-06-18 10:56 METAR KART 181456Z AUTO 24011G21KT 7SM CLR 28/22 A2983 RMK AO2 PK WND 23027/1401
                 SLP096 T02830222 56009 $ =
2018-06-18 09:56 METAR KART 181356Z AUTO 22017G24KT 9SM CLR 27/21 A2983 RMK AO2 SLP097 T02720211
                 $ =
2018-06-18 08:56 METAR KART 181256Z AUTO 23012G20KT 10SM SCT055 27/21 A2984 RMK AO2 SLP101
                 T02720206 $ =
2018-06-18 07:56 METAR KART 181156Z AUTO 23011G19KT 10SM CLR 26/20 A2986 RMK AO2 SLP105 T02610200
                 10261 20228 58005 $ =
2018-06-18 06:56 METAR KART 181056Z AUTO 21008KT 10SM FEW060 SCT075 25/19 A2987 RMK AO2 SLP109
                 T02500194 $ =
2018-06-18 05:56 METAR KART 180956Z AUTO 21008KT 10SM CLR 25/19 A2987 RMK AO2 LTG DSNT N SLP109
                 T02500189 $ =
2018-06-18 04:56 METAR KART 180856Z AUTO 20005KT 10SM FEW065 SCT085 24/18 A2988 RMK AO2 SLP111
                 T02390183 58016 $ =
2018-06-18 03:56 METAR KART 180756Z AUTO 19005KT 10SM FEW060 23/18 A2990 RMK AO2 SLP118 T02330183
                 $ =
2018-06-18 02:56 METAR KART 180656Z AUTO 19005KT 10SM CLR 23/18 A2991 RMK AO2 SLP122 T02330178 $
                 =
2018-06-18 01:56 METAR KART 180556Z AUTO 19004KT 10SM CLR 23/17 A2993 RMK AO2 SLP128 T02280172
                 10250 20194 58009 $ =
2018-06-18 00:56 METAR KART 180456Z AUTO 26003KT 10SM CLR 21/17 A2994 RMK AO2 SLP134 T02060172
                 402940094 $ =
2018-06-17 23:56 METAR KART 180356Z AUTO 00000KT 10SM CLR 20/17 A2994 RMK AO2 SLP134 T02000172 $
                 =
2018-06-17 22:56 METAR KART 180256Z AUTO 00000KT 10SM CLR 20/18 A2995 RMK AO2 SLP138 T02000178
                 55003 $ =
2018-06-17 21:56 METAR KART 180156Z AUTO 16003KT 10SM CLR 20/18 A2994 RMK AO2 SLP135 T02000178 $
                 =
2018-06-17 20:56 METAR KART 180056Z AUTO 00000KT 10SM CLR 23/18 A2994 RMK AO2 SLP134 T02280183 $
                 =

Support USWX by starting your Amazon purchase here.